Terminal Aerodrome Forecast
Issued by NWS Corpus Christi, TX

Home | Current Version | Previous Version | Text Only | Print | Product List | Glossary On
Versions: 1 2 3 4 5 6 7 8 9 10 11 12 13 14
000
FTUS44 KCRP 251737
TAFVCT
TAF
KVCT 251737Z 2518/2618 18018G26KT P6SM BKN035
     FM252100 16017G25KT P6SM SCT035
     FM260200 16015G23KT P6SM BKN012
     FM260900 18014KT P6SM OVC009
     FM261500 24018G25KT P6SM SKC=

USA.gov is the U.S. government's official web portal to all federal, state and local government web resources and services.